Time;durP1;ratioP1;P1;durP2;ratioP2;P2;SDS_P1;SDS_P2;PMS_P1;PMS_P2;Temp;Humidity;BMP_temperature;BMP_pressure;BME280_temperature;BME280_humidity;BME280_pressure;Samples;Min_cycle;Max_cycle;Signal;HPM_P1;HPM_P2
2023/11/16 00:00:30;;;;;;;1.60;1.30;;;;;;;6.36;100.00;98221.05;109595;1251;72758;-68
2023/11/16 00:02:58;;;;;;;2.80;1.50;;;;;;;6.36;100.00;98225.65;109613;1251;61745;-69
2023/11/16 00:05:25;;;;;;;1.10;1.00;;;;;;;6.33;100.00;98230.99;109593;1251;58853;-67
2023/11/16 00:07:53;;;;;;;2.70;1.30;;;;;;;6.31;100.00;98236.25;109656;1250;74654;-68
2023/11/16 00:10:20;;;;;;;1.40;1.30;;;;;;;6.29;100.00;98244.86;109691;1251;66639;-69
2023/11/16 00:12:47;;;;;;;1.30;1.20;;;;;;;6.26;100.00;98243.95;109622;1251;71365;-70
2023/11/16 00:15:14;;;;;;;3.30;1.00;;;;;;;6.23;100.00;98248.03;109640;1251;59605;-68
2023/11/16 00:17:42;;;;;;;1.20;1.00;;;;;;;6.21;100.00;98254.75;109636;1250;59047;-68
2023/11/16 00:20:11;;;;;;;0.80;0.80;;;;;;;6.20;100.00;98255.52;109652;1251;74328;-70
2023/11/16 00:22:38;;;;;;;0.90;0.90;;;;;;;6.22;100.00;98257.49;109627;1251;67283;-68
2023/11/16 00:25:07;;;;;;;2.70;0.90;;;;;;;6.23;100.00;98265.25;109658;1251;58977;-68
2023/11/16 00:27:34;;;;;;;1.30;1.00;;;;;;;6.23;100.00;98266.11;109624;1250;58994;-70
2023/11/16 00:30:03;;;;;;;0.70;0.70;;;;;;;6.22;100.00;98267.28;109588;1251;60099;-68
2023/11/16 00:32:30;;;;;;;0.90;0.80;;;;;;;6.19;100.00;98274.69;109756;1251;74653;-70
2023/11/16 00:34:57;;;;;;;1.90;0.70;;;;;;;6.14;100.00;98275.46;109655;1251;67702;-70
2023/11/16 00:37:24;;;;;;;2.70;0.70;;;;;;;6.09;100.00;98277.44;109616;1251;71587;-70
2023/11/16 00:39:52;;;;;;;0.70;0.60;;;;;;;6.04;100.00;98279.75;109639;1251;59755;-69
2023/11/16 00:42:20;;;;;;;0.60;0.50;;;;;;;5.99;100.00;98287.69;109534;1254;58837;-69
2023/11/16 00:44:47;;;;;;;1.70;0.50;;;;;;;5.95;100.00;98290.95;109616;1251;72852;-69
2023/11/16 00:47:18;;;;;;;0.50;0.50;;;;;;;5.92;100.00;98296.76;109729;1251;59505;-70
2023/11/16 00:49:46;;;;;;;0.60;0.60;;;;;;;5.90;100.00;98298.38;109645;1251;71222;-70
2023/11/16 00:52:12;;;;;;;2.00;0.70;;;;;;;5.89;100.00;98304.48;109592;1251;58993;-70
2023/11/16 00:54:39;;;;;;;0.80;0.80;;;;;;;5.86;100.00;98306.40;109678;1251;58987;-70
2023/11/16 00:57:05;;;;;;;0.80;0.70;;;;;;;5.82;100.00;98308.79;109693;1251;74516;-69
2023/11/16 00:59:32;;;;;;;0.60;0.40;;;;;;;5.77;100.00;98311.98;109696;1251;67907;-68
2023/11/16 01:01:59;;;;;;;0.60;0.60;;;;;;;5.74;100.00;98307.15;109600;1251;71244;-68
2023/11/16 01:04:25;;;;;;;0.50;0.50;;;;;;;5.74;100.00;98310.88;109573;1251;60530;-68
2023/11/16 01:06:53;;;;;;;0.40;0.40;;;;;;;5.74;100.00;98316.22;109636;1251;59321;-69
2023/11/16 01:09:20;;;;;;;0.40;0.40;;;;;;;5.70;100.00;98316.10;109725;1251;73205;-70
2023/11/16 01:11:47;;;;;;;0.60;0.60;;;;;;;5.66;100.00;98317.72;109635;1251;65998;-68
2023/11/16 01:14:16;;;;;;;0.60;0.50;;;;;;;5.64;100.00;98317.83;109683;1251;72735;-68
2023/11/16 01:16:45;;;;;;;0.70;0.70;;;;;;;5.61;100.00;98318.30;109571;1251;59551;-67
2023/11/16 01:19:15;;;;;;;0.60;0.60;;;;;;;5.58;100.00;98323.80;109680;1251;58909;-70
2023/11/16 01:21:44;;;;;;;0.60;0.60;;;;;;;5.57;100.00;98326.48;109667;1250;73120;-68
2023/11/16 01:24:11;;;;;;;0.50;0.50;;;;;;;5.55;100.00;98322.81;109701;1251;66434;-69
2023/11/16 01:26:41;;;;;;;1.10;0.60;;;;;;;5.53;100.00;98329.67;109630;1251;71440;-69
2023/11/16 01:29:09;;;;;;;0.50;0.50;;;;;;;5.53;100.00;98332.70;109581;1251;60193;-68
2023/11/16 01:31:39;;;;;;;0.60;0.60;;;;;;;5.53;100.00;98337.42;109670;1251;58978;-69
2023/11/16 01:34:15;;;;;;;1.50;0.60;;;;;;;5.54;100.00;98343.98;109677;1251;74681;-68
2023/11/16 01:36:42;;;;;;;0.60;0.50;;;;;;;5.53;100.00;98346.96;109666;1250;66438;-69
2023/11/16 01:39:09;;;;;;;1.10;0.80;;;;;;;5.50;100.00;98349.92;109525;1251;59018;-70
2023/11/16 01:41:36;;;;;;;2.00;1.80;;;;;;;5.47;100.00;98347.81;109550;1251;61029;-69
2023/11/16 01:44:03;;;;;;;1.70;1.60;;;;;;;5.43;100.00;98347.16;109589;1250;60276;-67
2023/11/16 01:46:31;;;;;;;2.00;0.80;;;;;;;5.42;100.00;98350.48;109735;1250;74604;-68
2023/11/16 01:48:57;;;;;;;1.30;0.90;;;;;;;5.39;100.00;98352.66;109510;1251;67760;-70
2023/11/16 01:51:25;;;;;;;3.50;3.20;;;;;;;5.39;100.00;98357.11;109567;1251;71148;-70
2023/11/16 01:53:54;;;;;;;1.90;1.70;;;;;;;5.38;100.00;98357.75;109454;1251;60244;-68
2023/11/16 01:56:20;;;;;;;1.70;1.50;;;;;;;5.35;100.00;98359.13;109672;1250;60282;-69
2023/11/16 01:58:47;;;;;;;2.90;2.10;;;;;;;5.31;100.00;98361.47;109685;1250;73480;-67
2023/11/16 02:01:15;;;;;;;5.20;3.30;;;;;;;5.30;100.00;98367.39;109668;1250;66524;-68
2023/11/16 02:03:48;;;;;;;2.10;1.80;;;;;;;5.28;100.00;98368.13;109457;1251;72508;-67
2023/11/16 02:06:15;;;;;;;1.50;1.40;;;;;;;5.27;100.00;98372.54;109528;1250;61360;-69
2023/11/16 02:08:45;;;;;;;2.70;1.80;;;;;;;5.24;100.00;98379.26;109672;1250;58926;-69
2023/11/16 02:11:12;;;;;;;3.00;2.10;;;;;;;5.21;100.00;98385.29;109628;1251;74452;-67
2023/11/16 02:13:38;;;;;;;2.40;1.80;;;;;;;5.19;100.00;98391.32;109555;1251;66384;-69
2023/11/16 02:16:06;;;;;;;2.40;1.70;;;;;;;5.15;100.00;98392.95;109614;1250;72654;-67
2023/11/16 02:18:34;;;;;;;4.40;1.90;;;;;;;5.10;100.00;98392.38;109612;1250;61052;-69
2023/11/16 02:21:03;;;;;;;3.50;1.80;;;;;;;5.07;100.00;98396.63;109651;1251;60080;-67
2023/11/16 02:23:32;;;;;;;1.50;1.40;;;;;;;5.03;100.00;98395.11;109519;1253;74534;-68
2023/11/16 02:25:58;;;;;;;3.30;1.70;;;;;;;4.98;100.00;98402.73;109457;1251;67682;-70
2023/11/16 02:28:26;;;;;;;2.30;1.80;;;;;;;4.94;100.00;98402.20;109528;1251;71429;-70
2023/11/16 02:30:53;;;;;;;2.20;2.00;;;;;;;4.87;100.00;98409.95;109556;1250;59235;-68
2023/11/16 02:33:20;;;;;;;5.60;2.40;;;;;;;4.82;100.00;98410.60;109704;1251;59008;-68
2023/11/16 02:35:48;;;;;;;3.30;2.50;;;;;;;4.79;100.00;98415.00;109626;1250;73383;-69
2023/11/16 02:38:16;;;;;;;3.80;3.00;;;;;;;4.79;100.00;98421.36;109653;1251;66564;-69
2023/11/16 02:40:43;;;;;;;2.60;2.40;;;;;;;4.78;100.00;98434.20;109689;1251;71507;-69
2023/11/16 02:43:10;;;;;;;2.90;2.40;;;;;;;4.78;100.00;98434.23;109643;1250;61863;-68
2023/11/16 02:45:37;;;;;;;2.90;2.60;;;;;;;4.79;100.00;98440.13;109663;1250;58994;-69
2023/11/16 02:48:04;;;;;;;2.20;2.00;;;;;;;4.79;100.00;98444.72;109646;1250;74963;-69
2023/11/16 02:50:31;;;;;;;2.30;2.10;;;;;;;4.77;100.00;98442.60;109604;1251;67230;-70
2023/11/16 02:52:58;;;;;;;2.20;2.00;;;;;;;4.74;100.00;98454.30;109736;1250;71665;-69
2023/11/16 02:55:24;;;;;;;2.70;2.10;;;;;;;4.71;100.00;98460.78;109547;1251;58996;-69
2023/11/16 02:57:55;;;;;;;2.80;2.40;;;;;;;4.68;100.00;98464.98;109580;1251;58871;-68
2023/11/16 03:00:22;;;;;;;2.40;2.20;;;;;;;4.60;100.00;98467.39;109666;1250;74732;-69
2023/11/16 03:02:51;;;;;;;1.90;1.80;;;;;;;4.54;100.00;98476.50;109699;1250;66530;-69
2023/11/16 03:05:21;;;;;;;2.30;2.20;;;;;;;4.52;100.00;98483.70;109625;1250;72395;-69
2023/11/16 03:07:50;;;;;;;2.20;2.00;;;;;;;4.53;100.00;98490.15;109573;1250;60401;-70
2023/11/16 03:10:17;;;;;;;2.30;2.10;;;;;;;4.54;100.00;98492.70;109654;1250;60262;-69
2023/11/16 03:12:47;;;;;;;2.40;2.30;;;;;;;4.54;100.00;98494.70;109667;1250;74629;-69
2023/11/16 03:15:13;;;;;;;2.50;2.30;;;;;;;4.53;100.00;98494.60;109532;1251;69256;-69
2023/11/16 03:17:43;;;;;;;2.80;2.60;;;;;;;4.54;100.00;98499.86;109663;1251;72638;-68
2023/11/16 03:20:15;;;;;;;2.40;2.30;;;;;;;4.54;100.00;98504.77;109586;1251;61019;-69
2023/11/16 03:22:41;;;;;;;2.30;2.10;;;;;;;4.54;100.00;98508.06;109610;1250;59957;-69
2023/11/16 03:25:08;;;;;;;4.90;2.50;;;;;;;4.58;100.00;98506.91;109622;1250;58918;-69
2023/11/16 03:27:35;;;;;;;2.40;2.20;;;;;;;4.64;100.00;98513.37;109670;1251;67059;-69
2023/11/16 03:30:03;;;;;;;2.30;2.20;;;;;;;4.63;100.00;98516.23;109736;1251;71038;-69
2023/11/16 03:32:30;;;;;;;2.50;2.30;;;;;;;4.61;100.00;98522.84;109612;1251;59693;-69
2023/11/16 03:34:56;;;;;;;2.10;2.00;;;;;;;4.66;100.00;98525.06;109697;1251;60173;-69
2023/11/16 03:37:23;;;;;;;2.10;2.00;;;;;;;4.64;100.00;98521.64;109668;1251;74665;-69
2023/11/16 03:39:49;;;;;;;2.50;2.30;;;;;;;4.59;100.00;98526.55;109578;1251;59529;-69
2023/11/16 03:42:16;;;;;;;1.80;1.70;;;;;;;4.58;100.00;98531.91;109601;1250;72325;-67
2023/11/16 03:44:43;;;;;;;2.30;2.00;;;;;;;4.58;100.00;98527.66;109594;1250;60184;-69
2023/11/16 03:47:10;;;;;;;3.10;2.90;;;;;;;4.59;100.00;98529.38;109644;1251;59114;-68
2023/11/16 03:49:37;;;;;;;3.20;3.00;;;;;;;4.57;100.00;98538.00;109668;1251;74562;-69
2023/11/16 03:52:04;;;;;;;3.80;3.40;;;;;;;4.56;100.00;98541.77;109601;1251;59055;-68
2023/11/16 03:54:32;;;;;;;3.70;3.40;;;;;;;4.54;100.00;98540.34;109615;1251;71200;-67
2023/11/16 03:56:59;;;;;;;3.00;2.80;;;;;;;4.55;100.00;98551.21;109636;1250;61354;-68
2023/11/16 03:59:26;;;;;;;3.20;2.60;;;;;;;4.55;100.00;98556.98;109628;1250;58920;-69
2023/11/16 04:01:53;;;;;;;3.10;2.80;;;;;;;4.54;100.00;98557.46;109596;1250;58867;-70
2023/11/16 04:04:20;;;;;;;3.10;2.80;;;;;;;4.54;100.00;98555.88;109673;1251;65963;-69
2023/11/16 04:06:47;;;;;;;3.10;2.90;;;;;;;4.54;100.00;98557.79;109623;1251;72570;-68
2023/11/16 04:09:14;;;;;;;3.10;2.90;;;;;;;4.54;100.00;98556.84;109549;1250;58964;-69
2023/11/16 04:11:42;;;;;;;2.90;2.70;;;;;;;4.54;100.00;98562.00;109686;1250;58927;-68
2023/11/16 04:14:09;;;;;;;3.60;3.20;;;;;;;4.53;100.00;98563.68;109603;1251;73210;-67
2023/11/16 04:16:35;;;;;;;3.20;2.80;;;;;;;4.51;100.00;98562.80;109682;1250;67956;-68
2023/11/16 04:19:03;;;;;;;3.40;3.20;;;;;;;4.50;100.00;98566.81;109623;1250;70916;-68
2023/11/16 04:21:31;;;;;;;3.60;3.30;;;;;;;4.49;100.00;98568.46;109594;1250;59909;-66
2023/11/16 04:23:59;;;;;;;3.50;3.20;;;;;;;4.49;100.00;98567.95;109614;1250;59065;-66
2023/11/16 04:26:28;;;;;;;4.70;4.30;;;;;;;4.46;100.00;98573.31;109575;1251;74477;-67
2023/11/16 04:29:00;;;;;;;3.90;3.60;;;;;;;4.46;100.00;98574.70;109698;1250;67029;-67
2023/11/16 04:31:27;;;;;;;4.00;3.70;;;;;;;4.43;100.00;98575.05;109525;1253;72505;-68
2023/11/16 04:33:54;;;;;;;4.90;4.50;;;;;;;4.42;100.00;98580.45;109637;1250;61135;-69
2023/11/16 04:36:23;;;;;;;4.00;3.70;;;;;;;4.40;100.00;98589.04;109673;1250;58906;-66
2023/11/16 04:38:50;;;;;;;4.80;4.40;;;;;;;4.40;100.00;98590.63;109671;1250;74550;-67
2023/11/16 04:41:17;;;;;;;4.50;4.20;;;;;;;4.40;100.00;98597.49;109619;1250;67742;-66
2023/11/16 04:43:45;;;;;;;4.90;4.50;;;;;;;4.40;100.00;98604.47;109664;1250;72451;-68
2023/11/16 04:46:12;;;;;;;5.00;4.60;;;;;;;4.42;100.00;98602.95;109577;1250;60166;-66
2023/11/16 04:48:43;;;;;;;5.60;5.10;;;;;;;4.44;100.00;98607.46;109681;1250;59245;-68
2023/11/16 04:51:12;;;;;;;5.90;5.40;;;;;;;4.45;100.00;98614.33;109640;1251;73518;-67
2023/11/16 04:53:40;;;;;;;7.00;5.50;;;;;;;4.43;100.00;98610.66;109636;1250;70763;-68
2023/11/16 04:56:07;;;;;;;5.80;5.20;;;;;;;4.43;100.00;98612.49;109680;1250;71433;-68
2023/11/16 04:58:33;;;;;;;5.00;4.60;;;;;;;4.42;100.00;98614.52;109666;1250;61293;-69
2023/11/16 05:01:00;;;;;;;4.90;4.50;;;;;;;4.43;100.00;98619.69;109659;1251;59022;-67
2023/11/16 05:03:27;;;;;;;5.20;4.80;;;;;;;4.45;100.00;98624.17;109627;1251;74989;-69
2023/11/16 05:05:55;;;;;;;5.90;5.40;;;;;;;4.48;100.00;98628.66;109766;1249;67732;-68
2023/11/16 05:08:23;;;;;;;5.80;5.40;;;;;;;4.50;100.00;98631.45;109638;1250;72660;-69
2023/11/16 05:10:51;;;;;;;6.40;5.90;;;;;;;4.51;100.00;98639.35;109531;1251;59429;-69
2023/11/16 05:13:21;;;;;;;5.50;5.10;;;;;;;4.50;100.00;98644.19;109624;1250;60166;-72
2023/11/16 05:15:48;;;;;;;5.10;4.70;;;;;;;4.48;100.00;98648.27;109559;1249;73470;-68
2023/11/16 05:18:15;;;;;;;5.60;5.20;;;;;;;4.48;100.00;98646.32;109634;1250;66425;-69
2023/11/16 05:20:42;;;;;;;5.00;4.50;;;;;;;4.49;100.00;98648.20;109606;1250;72505;-71
2023/11/16 05:23:09;;;;;;;4.90;4.50;;;;;;;4.51;100.00;98648.14;109568;1250;59842;-69
2023/11/16 05:25:37;;;;;;;5.70;5.20;;;;;;;4.52;100.00;98645.65;109665;1250;60020;-71
2023/11/16 05:28:04;;;;;;;5.60;5.10;;;;;;;4.49;100.00;98649.55;109685;1250;73278;-70
2023/11/16 05:30:32;;;;;;;6.10;5.50;;;;;;;4.47;100.00;98646.11;109640;1250;66678;-73
2023/11/16 05:33:00;;;;;;;6.50;5.90;;;;;;;4.43;100.00;98648.58;109636;1251;72658;-72
2023/11/16 05:35:27;;;;;;;6.30;5.70;;;;;;;4.40;100.00;98651.41;109379;1250;62100;-67
2023/11/16 05:37:54;;;;;;;6.80;6.20;;;;;;;4.38;100.00;98655.38;109479;1250;60531;-71
2023/11/16 05:40:20;;;;;;;6.50;5.90;;;;;;;4.38;100.00;98658.94;109611;1250;74596;-72
2023/11/16 05:42:47;;;;;;;7.00;6.30;;;;;;;4.38;100.00;98662.61;109643;1250;67835;-71
2023/11/16 05:45:14;;;;;;;7.10;6.50;;;;;;;4.40;100.00;98658.22;109577;1251;73041;-74
2023/11/16 05:47:41;;;;;;;6.10;5.50;;;;;;;4.41;100.00;98658.96;109665;1249;59152;-67
2023/11/16 05:50:09;;;;;;;6.20;5.70;;;;;;;4.40;100.00;98656.65;109629;1250;59351;-68
2023/11/16 05:52:36;;;;;;;7.80;7.10;;;;;;;4.37;100.00;98657.45;109670;1251;73079;-69
2023/11/16 05:55:03;;;;;;;8.00;7.30;;;;;;;4.33;100.00;98661.30;109673;1250;67777;-69
2023/11/16 05:57:31;;;;;;;7.40;6.70;;;;;;;4.31;100.00;98659.14;109630;1251;70079;-64
2023/11/16 05:59:59;;;;;;;6.40;5.80;;;;;;;4.25;100.00;98664.73;109587;1250;61407;-70
2023/11/16 06:02:27;;;;;;;6.30;5.80;;;;;;;4.27;100.00;98666.54;109661;1250;58953;-74
2023/11/16 06:04:53;;;;;;;5.20;4.70;;;;;;;4.25;100.00;98668.98;109602;1251;74533;-71
2023/11/16 06:07:20;;;;;;;5.70;5.20;;;;;;;4.21;100.00;98678.91;109701;1249;66777;-74
2023/11/16 06:09:47;;;;;;;7.20;6.60;;;;;;;4.17;100.00;98680.80;109664;1250;58962;-68
2023/11/16 06:12:18;;;;;;;6.90;6.30;;;;;;;4.14;100.00;98681.71;109539;1250;59965;-68
2023/11/16 06:14:56;;;;;;;6.50;5.90;;;;;;;4.10;100.00;98688.70;109621;1250;58961;-69
2023/11/16 06:17:23;;;;;;;7.50;6.10;;;;;;;4.10;100.00;98694.18;109605;1250;74692;-71
2023/11/16 06:19:49;;;;;;;6.30;5.70;;;;;;;4.09;100.00;98697.77;109630;1250;67783;-69
2023/11/16 06:22:17;;;;;;;6.30;5.70;;;;;;;4.10;100.00;98701.67;109698;1250;72930;-69
2023/11/16 06:24:44;;;;;;;7.00;6.30;;;;;;;4.10;100.00;98702.38;109556;1250;60194;-69
2023/11/16 06:27:10;;;;;;;7.70;7.00;;;;;;;4.11;100.00;98697.23;109653;1250;58892;-69
2023/11/16 06:29:37;;;;;;;7.80;7.10;;;;;;;4.11;100.00;98702.12;109621;1250;73335;-68
2023/11/16 06:32:05;;;;;;;7.40;6.80;;;;;;;4.09;100.00;98707.64;109671;1250;59053;-75
2023/11/16 06:34:33;;;;;;;8.00;7.30;;;;;;;4.09;100.00;98711.17;109650;1250;72711;-70
2023/11/16 06:37:00;;;;;;;7.20;6.40;;;;;;;4.11;100.00;98713.56;109598;1250;59856;-68
2023/11/16 06:39:27;;;;;;;6.60;6.00;;;;;;;4.10;100.00;98720.82;109664;1250;59115;-70
2023/11/16 06:41:53;;;;;;;6.40;5.90;;;;;;;4.12;100.00;98722.39;109669;1250;73241;-66
2023/11/16 06:44:21;;;;;;;7.50;6.60;;;;;;;4.12;100.00;98726.24;109706;1250;67865;-67
2023/11/16 06:46:49;;;;;;;6.80;6.20;;;;;;;4.13;100.00;98731.31;109624;1250;72333;-67
2023/11/16 06:49:16;;;;;;;9.70;7.40;;;;;;;4.11;100.00;98731.27;109400;1250;59344;-67
2023/11/16 06:51:43;;;;;;;7.00;6.30;;;;;;;4.11;100.00;98732.81;109592;1250;58912;-67
2023/11/16 06:54:11;;;;;;;6.40;5.80;;;;;;;4.10;100.00;98738.73;109589;1250;75303;-69
2023/11/16 06:56:40;;;;;;;6.40;5.80;;;;;;;4.11;100.00;98740.63;109604;1250;66654;-69
2023/11/16 06:59:12;;;;;;;8.10;7.10;;;;;;;4.09;100.00;98738.34;109594;1250;71169;-68
2023/11/16 07:01:43;;;;;;;7.00;6.40;;;;;;;4.09;100.00;98743.27;109610;1250;59510;-67
2023/11/16 07:04:11;;;;;;;7.20;6.50;;;;;;;4.08;100.00;98742.80;109524;1250;61759;-73
2023/11/16 07:06:38;;;;;;;6.40;5.80;;;;;;;4.09;100.00;98749.75;109597;1252;75671;-68
2023/11/16 07:09:06;;;;;;;7.00;6.30;;;;;;;4.04;100.00;98756.34;109691;1250;67894;-68
2023/11/16 07:11:33;;;;;;;5.90;5.40;;;;;;;4.02;100.00;98760.77;109585;1250;72552;-66
2023/11/16 07:13:59;;;;;;;6.50;5.90;;;;;;;4.04;100.00;98764.77;109632;1251;61643;-70
2023/11/16 07:16:26;;;;;;;6.40;5.50;;;;;;;4.00;100.00;98767.95;109505;1250;60563;-66
2023/11/16 07:18:52;;;;;;;8.50;5.30;;;;;;;4.00;100.00;98773.80;109656;1250;72873;-67
2023/11/16 07:21:19;;;;;;;5.60;5.10;;;;;;;3.99;100.00;98772.40;109697;1250;67806;-68
2023/11/16 07:23:46;;;;;;;5.80;5.30;;;;;;;4.00;100.00;98772.55;109658;1250;71362;-71
2023/11/16 07:26:14;;;;;;;6.00;5.40;;;;;;;4.00;100.00;98776.05;109603;1250;59464;-71
2023/11/16 07:28:42;;;;;;;6.10;5.50;;;;;;;3.99;100.00;98775.29;109633;1250;60193;-70
2023/11/16 07:31:08;;;;;;;8.20;6.30;;;;;;;3.98;100.00;98781.88;109638;1250;74432;-59
2023/11/16 07:33:35;;;;;;;6.90;6.20;;;;;;;4.00;100.00;98780.45;109702;1250;66954;-67
2023/11/16 07:36:02;;;;;;;6.00;5.40;;;;;;;4.02;100.00;98782.48;109635;1250;72516;-74
2023/11/16 07:38:31;;;;;;;5.50;5.00;;;;;;;4.06;100.00;98785.49;109678;1251;61287;-61
2023/11/16 07:40:58;;;;;;;5.80;5.20;;;;;;;4.11;100.00;98789.02;109568;1251;59285;-66
2023/11/16 07:43:25;;;;;;;6.00;5.40;;;;;;;4.16;100.00;98788.77;109666;1250;74646;-70
2023/11/16 07:45:52;;;;;;;6.20;5.60;;;;;;;4.17;100.00;98796.89;109666;1250;67768;-70
2023/11/16 07:48:20;;;;;;;4.80;4.40;;;;;;;4.17;100.00;98801.04;109623;1251;71292;-69
2023/11/16 07:51:00;;;;;;;5.90;5.40;;;;;;;4.16;100.00;98809.21;109641;1251;59345;-70
2023/11/16 07:53:27;;;;;;;5.70;5.20;;;;;;;4.12;100.00;98806.10;109649;1250;59562;-72
2023/11/16 07:55:54;;;;;;;4.60;4.20;;;;;;;4.10;100.00;98814.89;109708;1251;74419;-72
2023/11/16 07:58:22;;;;;;;5.00;4.60;;;;;;;4.07;100.00;98814.48;109671;1250;65615;-72
2023/11/16 08:01:04;;;;;;;5.10;4.60;;;;;;;4.05;100.00;98818.04;109614;1250;71289;-69
2023/11/16 08:03:43;;;;;;;4.30;4.00;;;;;;;4.07;100.00;98824.50;109565;1251;61242;-70
2023/11/16 08:06:12;;;;;;;4.80;4.40;;;;;;;4.12;100.00;98826.70;109677;1251;59064;-68
2023/11/16 08:08:41;;;;;;;5.20;4.70;;;;;;;4.10;100.00;98827.33;109522;1251;74043;-70
2023/11/16 08:11:09;;;;;;;5.00;4.60;;;;;;;4.13;100.00;98830.65;109511;1250;68778;-68
2023/11/16 08:13:37;;;;;;;5.10;4.60;;;;;;;4.11;100.00;98833.41;109513;1251;72529;-68
2023/11/16 08:16:04;;;;;;;6.10;5.60;;;;;;;4.10;100.00;98835.42;109658;1250;58950;-71
2023/11/16 08:18:31;;;;;;;4.60;4.10;;;;;;;4.09;100.00;98841.55;109545;1251;58937;-67
2023/11/16 08:20:58;;;;;;;5.20;4.70;;;;;;;4.09;100.00;98841.86;109661;1251;73134;-69
2023/11/16 08:23:29;;;;;;;4.80;4.40;;;;;;;4.09;100.00;98845.52;109660;1250;65382;-68
2023/11/16 08:26:12;;;;;;;5.00;4.50;;;;;;;4.12;100.00;98850.14;109672;1250;73854;-71
2023/11/16 08:28:42;;;;;;;5.50;5.00;;;;;;;4.16;100.00;98856.86;109623;1250;60114;-71
2023/11/16 08:31:12;;;;;;;5.50;4.50;;;;;;;4.17;100.00;98857.73;109632;1250;58875;-68
2023/11/16 08:33:40;;;;;;;5.00;4.40;;;;;;;4.21;100.00;98863.16;109674;1250;73068;-71
2023/11/16 08:36:10;;;;;;;5.10;4.10;;;;;;;4.25;100.00;98863.49;109623;1253;67758;-69
2023/11/16 08:38:41;;;;;;;5.80;5.30;;;;;;;4.26;100.00;98860.36;109588;1251;71600;-70
2023/11/16 08:41:15;;;;;;;5.20;4.70;;;;;;;4.29;100.00;98863.31;109587;1251;60187;-72
2023/11/16 08:43:42;;;;;;;7.90;5.50;;;;;;;4.30;100.00;98865.60;109555;1251;58858;-72
2023/11/16 08:46:10;;;;;;;5.70;4.90;;;;;;;4.33;100.00;98864.84;109677;1250;73271;-70
2023/11/16 08:48:37;;;;;;;5.30;4.80;;;;;;;4.35;100.00;98866.69;109657;1251;66724;-69
2023/11/16 08:51:05;;;;;;;6.10;5.50;;;;;;;4.36;100.00;98866.77;109658;1251;72615;-69
2023/11/16 08:53:35;;;;;;;6.50;5.90;;;;;;;4.34;100.00;98874.77;109656;1251;58996;-70
2023/11/16 08:56:03;;;;;;;7.50;5.60;;;;;;;4.31;100.00;98879.90;109688;1250;59018;-69
2023/11/16 08:58:31;;;;;;;7.50;5.40;;;;;;;4.29;100.00;98886.10;109671;1251;72677;-69
2023/11/16 09:01:02;;;;;;;4.60;4.10;;;;;;;4.28;100.00;98884.83;109704;1250;67973;-72
2023/11/16 09:03:30;;;;;;;5.50;4.00;;;;;;;4.29;100.00;98884.20;109692;1251;72735;-70
2023/11/16 09:05:57;;;;;;;5.10;4.60;;;;;;;4.26;100.00;98877.60;109597;1251;59008;-71
2023/11/16 09:08:24;;;;;;;5.10;4.50;;;;;;;4.27;100.00;98875.96;109508;1251;59049;-69
2023/11/16 09:10:51;;;;;;;7.00;4.30;;;;;;;4.27;100.00;98879.84;109659;1251;74809;-70
2023/11/16 09:13:18;;;;;;;4.20;3.70;;;;;;;4.25;100.00;98885.77;109625;1250;66459;-68
2023/11/16 09:15:45;;;;;;;4.40;4.00;;;;;;;4.23;100.00;98883.84;109662;1250;71239;-70
2023/11/16 09:18:13;;;;;;;4.00;3.70;;;;;;;4.23;100.00;98883.17;109594;1250;59034;-70
2023/11/16 09:20:45;;;;;;;4.20;3.70;;;;;;;4.20;100.00;98886.77;109584;1251;59707;-69
2023/11/16 09:23:13;;;;;;;5.00;4.10;;;;;;;4.16;100.00;98888.61;109590;1251;74528;-71
2023/11/16 09:25:40;;;;;;;4.50;3.80;;;;;;;4.11;100.00;98886.75;109625;1251;67967;-71
2023/11/16 09:28:09;;;;;;;4.80;4.10;;;;;;;4.10;100.00;98888.30;109620;1250;71722;-69
2023/11/16 09:30:39;;;;;;;4.30;3.90;;;;;;;4.09;100.00;98892.17;109542;1251;60964;-69
2023/11/16 09:33:09;;;;;;;5.80;4.50;;;;;;;4.11;100.00;98888.36;109667;1251;58881;-70
2023/11/16 09:35:42;;;;;;;5.00;4.40;;;;;;;4.13;100.00;98890.62;109642;1250;74672;-71
2023/11/16 09:38:08;;;;;;;6.10;4.40;;;;;;;4.15;100.00;98890.09;109656;1250;68087;-70
2023/11/16 09:40:36;;;;;;;4.70;4.20;;;;;;;4.17;100.00;98891.27;109470;1251;70451;-70
2023/11/16 09:43:16;;;;;;;7.00;4.60;;;;;;;4.20;100.00;98889.63;109570;1251;58985;-69
2023/11/16 09:45:47;;;;;;;5.80;4.50;;;;;;;4.22;100.00;98884.34;109658;1251;58895;-71
2023/11/16 09:48:15;;;;;;;5.40;3.80;;;;;;;4.26;100.00;98891.28;109627;1251;74017;-70
2023/11/16 09:50:44;;;;;;;7.70;4.60;;;;;;;4.31;100.00;98895.00;109635;1251;68889;-69
2023/11/16 09:53:16;;;;;;;8.00;4.80;;;;;;;4.35;100.00;98895.52;109441;1251;194003;-68
2023/11/16 09:55:46;;;;;;;4.80;3.90;;;;;;;4.38;100.00;98893.84;109588;1251;60994;-68
2023/11/16 09:58:17;;;;;;;4.10;3.60;;;;;;;4.42;100.00;98895.09;109660;1251;58995;-70
2023/11/16 10:00:48;;;;;;;3.50;3.20;;;;;;;4.46;100.00;98896.77;109656;1250;74472;-70
2023/11/16 10:03:24;;;;;;;4.70;3.60;;;;;;;4.50;100.00;98891.16;109571;1251;66993;-68
2023/11/16 10:05:53;;;;;;;;;;;;;;;4.52;100.00;98894.09;109611;1251;72518;-69
2023/11/16 10:08:20;;;;;;;3.10;2.80;;;;;;;4.55;100.00;98893.30;109595;1251;58943;-68
2023/11/16 10:10:56;;;;;;;3.40;2.90;;;;;;;4.59;100.00;98893.41;109649;1251;59033;-58
2023/11/16 10:13:27;;;;;;;3.50;2.60;;;;;;;4.63;100.00;98892.25;109588;1251;74699;-58
2023/11/16 10:16:10;;;;;;;2.70;2.50;;;;;;;4.67;100.00;98891.08;109649;1251;66750;-68
2023/11/16 10:18:38;;;;;;;2.60;2.40;;;;;;;4.69;100.00;98888.75;109561;1250;72998;-69
2023/11/16 10:21:05;;;;;;;2.60;2.30;;;;;;;4.79;100.00;98890.61;109573;1251;60924;-67
2023/11/16 10:23:32;;;;;;;3.10;2.80;;;;;;;4.83;100.00;98890.73;109602;1251;59158;-67
2023/11/16 10:25:59;;;;;;;3.70;2.80;;;;;;;4.84;100.00;98889.52;109667;1250;72693;-74
2023/11/16 10:28:26;;;;;;;3.20;2.50;;;;;;;4.84;100.00;98890.97;109636;1251;68006;-69
2023/11/16 10:30:54;;;;;;;5.30;2.90;;;;;;;4.84;100.00;98889.41;109622;1250;71430;-68
2023/11/16 10:33:23;;;;;;;3.20;2.80;;;;;;;4.84;100.00;98887.14;109616;1251;59453;-70
2023/11/16 10:35:52;;;;;;;2.80;2.50;;;;;;;4.82;100.00;98892.55;109663;1250;60227;-70
2023/11/16 10:38:21;;;;;;;2.80;2.60;;;;;;;4.78;100.00;98892.19;109590;1251;73397;-68
2023/11/16 10:40:49;;;;;;;2.80;2.60;;;;;;;4.75;100.00;98893.77;109639;1251;68121;-69
2023/11/16 10:43:20;;;;;;;3.90;3.50;;;;;;;4.72;100.00;98893.38;109448;1251;72462;-69
2023/11/16 10:45:47;;;;;;;4.30;3.50;;;;;;;4.67;100.00;98901.05;109608;1250;59517;-71
2023/11/16 10:48:13;;;;;;;4.10;3.50;;;;;;;4.66;100.00;98902.41;109676;1251;60304;-67
2023/11/16 10:50:42;;;;;;;4.20;3.00;;;;;;;4.65;100.00;98905.50;109667;1251;74465;-69
2023/11/16 10:53:17;;;;;;;3.70;3.10;;;;;;;4.64;100.00;98907.64;109634;1251;67935;-68
2023/11/16 10:55:47;;;;;;;4.20;3.70;;;;;;;4.64;100.00;98911.04;109638;1251;72459;-68
2023/11/16 10:58:13;;;;;;;3.60;3.00;;;;;;;4.65;100.00;98907.25;109638;1251;58914;-68
2023/11/16 11:00:41;;;;;;;4.50;3.70;;;;;;;4.67;100.00;98912.15;109549;1251;60446;-68
2023/11/16 11:03:08;;;;;;;3.90;3.50;;;;;;;4.72;100.00;98914.85;109562;1250;74735;-70
2023/11/16 11:05:36;;;;;;;4.30;3.40;;;;;;;4.69;100.00;98912.40;109681;1250;66994;-73
2023/11/16 11:08:10;;;;;;;4.40;3.70;;;;;;;4.67;100.00;98915.14;109512;1251;72692;-71
2023/11/16 11:10:41;;;;;;;3.50;3.20;;;;;;;4.61;100.00;98918.11;109574;1251;59177;-69
2023/11/16 11:13:08;;;;;;;4.10;3.70;;;;;;;4.57;100.00;98918.73;109560;1250;59414;-68
2023/11/16 11:15:36;;;;;;;4.20;3.50;;;;;;;4.52;100.00;98924.96;109638;1251;73534;-70
2023/11/16 11:18:04;;;;;;;3.50;3.20;;;;;;;4.48;100.00;98924.36;109602;1251;66803;-65
2023/11/16 11:20:40;;;;;;;3.30;2.60;;;;;;;4.41;100.00;98927.86;109504;1251;71656;-72
2023/11/16 11:23:13;;;;;;;3.10;1.70;;;;;;;4.32;100.00;98931.48;109661;1251;60313;-74
2023/11/16 11:25:41;;;;;;;2.10;1.80;;;;;;;4.25;100.00;98938.27;109645;1253;59116;-72
2023/11/16 11:28:09;;;;;;;1.70;1.60;;;;;;;4.21;100.00;98942.30;109664;1250;73569;-73